Time;durP1;ratioP1;P1;durP2;ratioP2;P2;SDS_P1;SDS_P2;PMS_P1;PMS_P2;Temp;Humidity;BMP_temperature;BMP_pressure;BME280_temperature;BME280_humidity;BME280_pressure;Samples;Min_cycle;Max_cycle;Signal;HPM_P1;HPM_P2
2020/12/26 00:02:07;;;;;;;2.27;1.50;;;-6.30;99.90;;;;;;4999689;28;20206;-79
2020/12/26 00:04:34;;;;;;;2.90;1.77;;;-6.30;99.90;;;;;;4987708;28;20566;-79
2020/12/26 00:07:00;;;;;;;1.97;1.60;;;-6.30;99.90;;;;;;4997496;28;20199;-79
2020/12/26 00:09:26;;;;;;;1.97;1.53;;;-6.30;99.90;;;;;;5002140;28;20241;-79
2020/12/26 00:11:52;;;;;;;2.53;1.60;;;-6.30;99.90;;;;;;5000914;28;20195;-79
2020/12/26 00:14:18;;;;;;;3.42;1.90;;;-6.30;99.90;;;;;;4979684;28;20310;-78
2020/12/26 00:16:44;;;;;;;3.17;1.90;;;-6.40;99.90;;;;;;4997156;28;20293;-79
2020/12/26 00:19:14;;;;;;;2.60;1.80;;;-6.40;99.90;;;;;;4999196;28;20203;-78
2020/12/26 00:21:41;;;;;;;3.40;2.03;;;-6.40;99.90;;;;;;4999778;28;20199;-79
2020/12/26 00:24:07;;;;;;;3.30;1.90;;;-6.40;99.90;;;;;;4992828;28;20753;-78
2020/12/26 00:26:33;;;;;;;3.33;2.00;;;-6.40;99.90;;;;;;5001060;28;20199;-79
2020/12/26 00:28:59;;;;;;;2.27;1.90;;;-6.40;99.90;;;;;;5000277;28;20828;-78
2020/12/26 00:31:24;;;;;;;3.78;1.98;;;-6.40;99.90;;;;;;4998939;28;20289;-78
2020/12/26 00:33:50;;;;;;;3.23;2.00;;;-6.40;99.90;;;;;;4993062;28;20561;-78
2020/12/26 00:36:16;;;;;;;3.15;1.90;;;-6.40;99.90;;;;;;4992799;28;20198;-78
2020/12/26 00:38:41;;;;;;;4.07;2.40;;;-6.40;99.90;;;;;;4998232;28;20428;-78
2020/12/26 00:41:14;;;;;;;3.28;2.08;;;-6.40;99.90;;;;;;4998472;28;21082;-78
2020/12/26 00:43:41;;;;;;;3.70;2.10;;;-6.40;99.90;;;;;;5001227;28;20207;-78
2020/12/26 00:46:07;;;;;;;3.57;2.20;;;-6.40;99.90;;;;;;4996998;28;20708;-79
2020/12/26 00:48:33;;;;;;;3.60;1.92;;;-6.40;99.90;;;;;;4993159;28;20290;-78
2020/12/26 00:50:59;;;;;;;2.47;1.87;;;-6.40;99.90;;;;;;4996884;28;20542;-78
2020/12/26 00:53:24;;;;;;;5.15;2.45;;;-6.40;99.90;;;;;;4999819;28;20294;-78
2020/12/26 00:55:50;;;;;;;3.10;2.00;;;-6.40;99.90;;;;;;5001523;28;20201;-78
2020/12/26 00:58:16;;;;;;;4.87;2.37;;;-6.40;99.90;;;;;;5003080;28;20199;-78
2020/12/26 01:00:45;;;;;;;4.32;2.50;;;-6.40;99.90;;;;;;5000115;28;20710;-78
2020/12/26 01:03:11;;;;;;;4.20;2.43;;;-6.40;99.90;;;;;;4994733;28;20226;-78
2020/12/26 01:05:37;;;;;;;5.17;2.83;;;-6.30;99.90;;;;;;4995584;28;20778;-77
2020/12/26 01:08:02;;;;;;;8.00;3.23;;;-6.40;99.90;;;;;;4994216;28;20686;-77
2020/12/26 01:10:28;;;;;;;12.30;4.35;;;-6.40;99.90;;;;;;4996291;28;20402;-78
2020/12/26 01:12:54;;;;;;;16.23;5.30;;;-6.30;99.90;;;;;;4993215;28;20200;-79
2020/12/26 01:15:19;;;;;;;19.58;7.30;;;-6.30;99.90;;;;;;4994884;28;20199;-77
2020/12/26 01:17:45;;;;;;;24.65;9.25;;;-6.20;99.90;;;;;;4994708;28;20290;-78
2020/12/26 01:20:11;;;;;;;22.20;8.48;;;-6.20;99.90;;;;;;4994877;28;20249;-78
2020/12/26 01:22:37;;;;;;;14.45;5.78;;;-6.20;99.90;;;;;;4994229;28;20210;-78
2020/12/26 01:25:06;;;;;;;13.97;5.83;;;-6.10;99.90;;;;;;4997327;28;20199;-77
2020/12/26 01:27:32;;;;;;;10.63;4.63;;;-6.20;99.90;;;;;;4997312;28;20301;-78
2020/12/26 01:29:58;;;;;;;9.57;4.13;;;-6.10;99.90;;;;;;4989197;28;20254;-77
2020/12/26 01:32:27;;;;;;;7.03;3.58;;;-6.00;99.90;;;;;;4996699;28;20226;-77
2020/12/26 01:34:55;;;;;;;7.47;3.20;;;-5.90;99.90;;;;;;4995423;28;20282;-77
2020/12/26 01:37:20;;;;;;;4.30;2.50;;;-5.90;99.90;;;;;;4998191;28;20199;-78
2020/12/26 01:39:46;;;;;;;4.13;2.30;;;-5.80;99.90;;;;;;4991869;28;20605;-77
2020/12/26 01:42:12;;;;;;;4.10;2.08;;;-5.70;99.90;;;;;;5000649;28;20195;-77
2020/12/26 01:44:38;;;;;;;3.90;1.90;;;-5.70;99.90;;;;;;4994152;28;20673;-77
2020/12/26 01:47:04;;;;;;;3.25;1.83;;;-5.60;99.90;;;;;;4995059;28;20202;-78
2020/12/26 01:49:30;;;;;;;5.40;2.00;;;-5.60;99.90;;;;;;4990595;28;20210;-78
2020/12/26 01:51:56;;;;;;;2.60;1.90;;;-5.60;99.90;;;;;;4991737;28;20203;-78
2020/12/26 01:54:22;;;;;;;3.10;1.80;;;-5.50;99.90;;;;;;4991283;28;20267;-77
2020/12/26 01:56:48;;;;;;;5.82;2.70;;;-5.50;99.90;;;;;;4998684;28;20819;-78
2020/12/26 01:59:14;;;;;;;5.13;2.58;;;-5.50;99.90;;;;;;4992331;28;20226;-78
2020/12/26 02:01:41;;;;;;;7.65;3.45;;;-5.50;99.90;;;;;;4998491;28;20566;-80
2020/12/26 02:04:11;;;;;;;7.10;3.17;;;-5.40;99.90;;;;;;4950246;23;940558;-77
2020/12/26 02:06:50;;;;;;;5.35;3.05;;;-5.50;99.90;;;;;;4971699;28;20207;-76
2020/12/26 02:09:16;;;;;;;6.60;3.45;;;-5.50;99.90;;;;;;4970886;28;20212;-76
2020/12/26 02:11:43;;;;;;;6.17;3.43;;;-5.50;99.90;;;;;;4970437;28;20999;-75
2020/12/26 02:14:08;;;;;;;8.87;3.77;;;-5.50;99.90;;;;;;4972448;28;20195;-76
2020/12/26 02:16:51;;;;;;;8.00;3.57;;;-5.50;99.90;;;;;;4971856;28;20579;-76
2020/12/26 02:19:22;;;;;;;4.67;3.13;;;-5.50;99.90;;;;;;4969370;28;20208;-76
2020/12/26 02:21:49;;;;;;;5.47;2.97;;;-5.50;99.90;;;;;;4968155;28;20886;-75
2020/12/26 02:24:14;;;;;;;5.90;3.22;;;-5.50;99.90;;;;;;4967604;28;20685;-76
2020/12/26 02:26:40;;;;;;;6.33;3.00;;;-5.40;99.90;;;;;;4970789;28;20228;-76
2020/12/26 02:29:07;;;;;;;6.53;3.37;;;-5.40;99.90;;;;;;4970609;28;20219;-75
2020/12/26 02:31:34;;;;;;;5.05;3.10;;;-5.40;99.90;;;;;;4968994;28;20219;-76
2020/12/26 02:34:00;;;;;;;5.85;2.85;;;-5.40;99.90;;;;;;4973019;28;20770;-76
2020/12/26 02:36:25;;;;;;;6.30;3.40;;;-5.40;99.90;;;;;;4974213;28;20203;-77
2020/12/26 02:38:51;;;;;;;6.50;3.03;;;-5.40;99.90;;;;;;4971470;28;20692;-76
2020/12/26 02:41:17;;;;;;;8.15;3.63;;;-5.40;99.90;;;;;;4970997;28;20207;-76
2020/12/26 02:43:42;;;;;;;6.23;3.30;;;-5.30;99.90;;;;;;4971645;28;20261;-76
2020/12/26 02:46:08;;;;;;;7.30;3.25;;;-5.30;99.90;;;;;;4975903;28;20505;-76
2020/12/26 02:48:34;;;;;;;8.10;3.83;;;-5.30;99.90;;;;;;4977078;28;20730;-75
2020/12/26 02:51:00;;;;;;;13.43;4.50;;;-5.30;99.90;;;;;;4975076;28;20199;-76
2020/12/26 02:53:26;;;;;;;10.77;4.07;;;-5.30;99.90;;;;;;4973419;28;20200;-76
2020/12/26 02:55:52;;;;;;;10.37;4.40;;;-5.20;99.90;;;;;;4976988;28;20207;-77
2020/12/26 02:58:18;;;;;;;10.43;4.30;;;-5.30;99.90;;;;;;4974257;28;20767;-77
2020/12/26 03:00:45;;;;;;;14.48;5.65;;;-5.20;99.90;;;;;;4972639;28;20199;-77
2020/12/26 03:03:10;;;;;;;12.53;5.40;;;-5.20;99.90;;;;;;4978274;28;20561;-75
2020/12/26 03:05:36;;;;;;;11.93;5.38;;;-5.20;99.90;;;;;;4976705;28;20274;-76
2020/12/26 03:08:02;;;;;;;10.43;4.63;;;-5.30;99.90;;;;;;4975767;28;20737;-76
2020/12/26 03:10:28;;;;;;;7.82;4.22;;;-5.40;99.90;;;;;;4970433;28;20196;-76
2020/12/26 03:12:54;;;;;;;8.67;4.20;;;-5.40;99.90;;;;;;4973497;28;20774;-76
2020/12/26 03:15:21;;;;;;;7.50;4.13;;;-5.40;99.90;;;;;;4974615;28;20206;-77
2020/12/26 03:17:47;;;;;;;7.63;3.70;;;-5.40;99.90;;;;;;4974690;28;20973;-76
2020/12/26 03:20:13;;;;;;;7.53;3.70;;;-5.30;99.90;;;;;;4975951;28;20254;-76
2020/12/26 03:22:39;;;;;;;8.82;3.60;;;-5.30;99.90;;;;;;4975665;28;20203;-76
2020/12/26 03:25:04;;;;;;;9.13;3.50;;;-5.30;99.90;;;;;;4972350;28;20207;-76
2020/12/26 03:27:30;;;;;;;8.52;3.33;;;-5.20;99.90;;;;;;4975544;28;20200;-76
2020/12/26 03:29:55;;;;;;;5.22;2.70;;;-5.20;99.90;;;;;;4975359;28;20214;-76
2020/12/26 03:32:21;;;;;;;8.82;2.70;;;-5.20;99.90;;;;;;4975718;28;20990;-76
2020/12/26 03:34:48;;;;;;;6.60;3.00;;;-5.20;99.90;;;;;;4973974;28;20199;-77
2020/12/26 03:37:14;;;;;;;5.18;2.80;;;-5.10;99.90;;;;;;4974376;28;20291;-76
2020/12/26 03:39:40;;;;;;;7.53;3.08;;;-5.10;99.90;;;;;;4974872;28;20638;-76
2020/12/26 03:42:10;;;;;;;6.07;2.80;;;-5.10;99.90;;;;;;4974569;28;20204;-76
2020/12/26 03:44:37;;;;;;;7.60;3.38;;;-5.10;99.90;;;;;;4976076;28;20526;-76
2020/12/26 03:47:08;;;;;;;5.47;2.85;;;-5.10;99.90;;;;;;4976044;28;20211;-76
2020/12/26 03:49:34;;;;;;;8.20;3.63;;;-5.10;99.90;;;;;;4975354;28;20693;-75
2020/12/26 03:52:00;;;;;;;7.95;3.67;;;-5.10;99.90;;;;;;4975585;28;20199;-77
2020/12/26 03:54:26;;;;;;;6.53;3.45;;;-5.10;99.90;;;;;;4976851;28;20246;-76
2020/12/26 03:56:52;;;;;;;8.30;3.60;;;-5.10;99.90;;;;;;4972853;28;20274;-76
2020/12/26 03:59:18;;;;;;;5.68;2.80;;;-5.10;99.90;;;;;;4971230;28;20634;-76
2020/12/26 04:01:44;;;;;;;5.47;2.90;;;-5.10;99.90;;;;;;4970101;28;20202;-76
2020/12/26 04:04:10;;;;;;;6.05;3.15;;;-5.00;99.90;;;;;;4971157;28;20264;-76
2020/12/26 04:06:36;;;;;;;5.35;3.15;;;-5.10;99.90;;;;;;4972134;28;20233;-77
2020/12/26 04:09:03;;;;;;;4.45;2.80;;;-5.00;99.90;;;;;;4973550;28;20633;-76
2020/12/26 04:11:28;;;;;;;4.75;2.92;;;-5.00;99.90;;;;;;4973365;28;20204;-76
2020/12/26 04:13:54;;;;;;;5.68;2.60;;;-5.00;99.90;;;;;;4974611;28;20227;-76
2020/12/26 04:16:20;;;;;;;5.22;2.95;;;-5.00;99.90;;;;;;4972817;28;20196;-76
2020/12/26 04:18:45;;;;;;;6.45;2.78;;;-4.90;99.90;;;;;;4976261;28;20243;-76
2020/12/26 04:21:11;;;;;;;4.60;3.00;;;-4.90;99.90;;;;;;4971017;28;20238;-76
2020/12/26 04:23:37;;;;;;;5.00;3.00;;;-4.90;99.90;;;;;;4975442;28;20211;-77
2020/12/26 04:26:07;;;;;;;6.20;3.28;;;-4.90;99.90;;;;;;4973918;28;20231;-77
2020/12/26 04:28:33;;;;;;;6.07;3.10;;;-4.90;99.90;;;;;;4970118;28;20208;-77
2020/12/26 04:30:58;;;;;;;4.70;2.45;;;-4.90;99.90;;;;;;4973551;28;20206;-76
2020/12/26 04:33:24;;;;;;;3.80;2.30;;;-4.90;99.90;;;;;;4971733;28;20208;-77
2020/12/26 04:35:50;;;;;;;4.00;2.40;;;-4.90;99.90;;;;;;4969822;28;20259;-77
2020/12/26 04:38:15;;;;;;;3.78;2.40;;;-4.90;99.90;;;;;;4972795;28;20274;-77
2020/12/26 04:40:42;;;;;;;2.67;1.90;;;-4.90;99.90;;;;;;4974192;28;20588;-77
2020/12/26 04:43:08;;;;;;;3.03;1.80;;;-4.90;99.90;;;;;;4973745;28;20747;-76
2020/12/26 04:45:34;;;;;;;3.08;1.85;;;-4.90;99.90;;;;;;4974495;28;20600;-77
2020/12/26 04:48:12;;;;;;;2.75;1.80;;;-4.90;99.90;;;;;;4971416;28;20195;-76
2020/12/26 04:50:49;;;;;;;3.38;1.85;;;-4.80;99.90;;;;;;4973268;28;20287;-76
2020/12/26 04:53:18;;;;;;;2.55;1.75;;;-4.80;99.90;;;;;;4971840;28;20199;-76
2020/12/26 04:55:47;;;;;;;3.22;1.75;;;-4.80;99.90;;;;;;4974330;28;20702;-76
2020/12/26 04:58:13;;;;;;;3.33;1.77;;;-4.80;99.90;;;;;;4972507;28;20685;-76
2020/12/26 05:00:40;;;;;;;2.53;1.60;;;-4.70;99.90;;;;;;4968046;28;20668;-77
2020/12/26 05:03:11;;;;;;;2.60;1.70;;;-4.70;99.90;;;;;;4975282;28;20685;-76
2020/12/26 05:05:38;;;;;;;3.28;2.00;;;-4.70;99.90;;;;;;4971810;28;20254;-76
2020/12/26 05:08:14;;;;;;;3.33;1.75;;;-4.60;99.90;;;;;;4974233;28;20203;-76
2020/12/26 05:10:42;;;;;;;2.55;1.67;;;-4.60;99.90;;;;;;4984401;28;20211;-77
2020/12/26 05:13:10;;;;;;;2.90;1.92;;;-4.60;99.90;;;;;;4974518;28;20203;-76
2020/12/26 05:15:36;;;;;;;4.35;1.77;;;-4.60;99.90;;;;;;4979139;28;20689;-76
2020/12/26 05:18:03;;;;;;;2.03;1.83;;;-4.60;99.90;;;;;;4969101;28;20234;-76
2020/12/26 05:20:29;;;;;;;2.13;1.70;;;-4.50;99.90;;;;;;4974384;28;20716;-76
2020/12/26 05:23:09;;;;;;;2.75;1.85;;;-4.50;99.90;;;;;;4975976;28;20215;-76
2020/12/26 05:25:55;;;;;;;2.65;1.80;;;-4.50;99.90;;;;;;4973640;28;20612;-76
2020/12/26 05:28:25;;;;;;;3.08;1.92;;;-4.40;99.90;;;;;;4968487;28;20763;-76
2020/12/26 05:30:52;;;;;;;3.40;1.90;;;-4.40;99.90;;;;;;4973885;28;20494;-76
2020/12/26 05:33:19;;;;;;;3.38;1.90;;;-4.40;99.90;;;;;;4974171;28;20687;-76
2020/12/26 05:35:47;;;;;;;3.15;1.80;;;-4.40;99.90;;;;;;4977319;28;20208;-76
2020/12/26 05:38:24;;;;;;;1.80;1.67;;;-4.40;99.90;;;;;;4971729;28;20678;-76
2020/12/26 05:40:52;;;;;;;2.85;1.70;;;-4.40;99.90;;;;;;4974893;28;20557;-76
2020/12/26 05:43:21;;;;;;;3.13;1.90;;;-4.50;99.90;;;;;;4975146;28;20740;-76
2020/12/26 05:45:48;;;;;;;3.28;2.00;;;-4.50;99.90;;;;;;4975063;28;20194;-76
2020/12/26 05:48:16;;;;;;;4.88;2.13;;;-4.50;99.90;;;;;;4974576;28;20341;-76
2020/12/26 05:50:42;;;;;;;3.30;2.05;;;-4.50;99.90;;;;;;4976427;28;20201;-76
2020/12/26 05:53:11;;;;;;;2.95;1.77;;;-4.50;99.90;;;;;;4974114;28;20299;-76
2020/12/26 05:55:46;;;;;;;3.47;1.83;;;-4.40;99.90;;;;;;4973576;28;20250;-77
2020/12/26 05:58:13;;;;;;;2.25;1.55;;;-4.40;99.90;;;;;;4976295;28;20570;-77
2020/12/26 06:00:40;;;;;;;1.95;1.40;;;-4.40;99.90;;;;;;4974700;28;20203;-77
2020/12/26 06:03:26;;;;;;;2.38;1.65;;;-4.30;99.90;;;;;;4977869;28;20191;-76
2020/12/26 06:05:55;;;;;;;3.63;2.00;;;-4.30;99.90;;;;;;4972709;28;20751;-76
2020/12/26 06:08:22;;;;;;;3.15;2.00;;;-4.30;99.90;;;;;;4989942;28;21106;-76
2020/12/26 06:10:55;;;;;;;3.22;2.10;;;-4.20;99.90;;;;;;4971385;28;20343;-76
2020/12/26 06:13:24;;;;;;;4.88;2.22;;;-4.20;99.90;;;;;;4987389;28;20200;-76
2020/12/26 06:16:01;;;;;;;2.95;2.10;;;-4.20;99.90;;;;;;4973632;28;20323;-76
2020/12/26 06:18:31;;;;;;;4.35;2.30;;;-4.20;99.90;;;;;;4974216;28;20203;-77
2020/12/26 06:20:57;;;;;;;3.67;2.20;;;-4.10;99.90;;;;;;4978190;28;20199;-76
2020/12/26 06:23:24;;;;;;;4.28;2.30;;;-4.20;99.90;;;;;;4977926;28;20542;-77
2020/12/26 06:25:51;;;;;;;3.63;2.10;;;-4.20;99.90;;;;;;4976992;28;20250;-76
2020/12/26 06:28:27;;;;;;;5.07;2.30;;;-4.10;99.90;;;;;;4977603;28;20291;-75
2020/12/26 06:30:54;;;;;;;3.47;2.03;;;-4.10;99.90;;;;;;4974456;28;20515;-76
2020/12/26 06:33:25;;;;;;;3.22;2.22;;;-4.20;99.90;;;;;;4978178;28;20657;-77
2020/12/26 06:35:52;;;;;;;2.92;2.10;;;-4.20;99.90;;;;;;4973062;28;20213;-77
2020/12/26 06:38:23;;;;;;;4.68;2.60;;;-4.20;99.90;;;;;;4973518;28;20199;-77
2020/12/26 06:40:56;;;;;;;3.78;2.03;;;-4.20;99.90;;;;;;4970222;28;20196;-78
2020/12/26 06:43:51;;;;;;;4.47;2.22;;;-4.10;99.90;;;;;;4975930;28;20768;-76
2020/12/26 06:46:16;;;;;;;4.72;2.40;;;-4.10;99.90;;;;;;4976305;28;20704;-76
2020/12/26 06:48:43;;;;;;;4.80;2.55;;;-4.20;99.90;;;;;;4975316;28;20204;-77
2020/12/26 06:51:24;;;;;;;6.53;2.85;;;-4.20;99.90;;;;;;4975861;28;20196;-76
2020/12/26 06:53:51;;;;;;;5.18;2.63;;;-4.20;99.90;;;;;;4975255;28;20196;-76
2020/12/26 06:56:45;;;;;;;3.63;2.35;;;-4.10;99.90;;;;;;4977613;28;20206;-76
2020/12/26 06:59:12;;;;;;;3.75;2.40;;;-4.10;99.90;;;;;;4974576;28;20204;-77
2020/12/26 07:01:45;;;;;;;21.63;6.72;;;-4.10;99.90;;;;;;4976849;28;20204;-76
2020/12/26 07:04:19;;;;;;;13.55;4.43;;;-4.00;99.90;;;;;;4976727;28;20722;-76
2020/12/26 07:06:49;;;;;;;12.93;4.70;;;-4.00;99.90;;;;;;4978943;28;20249;-76
2020/12/26 07:09:17;;;;;;;8.23;3.30;;;-4.00;99.90;;;;;;4981275;28;20211;-77
2020/12/26 07:11:50;;;;;;;7.57;3.45;;;-3.90;99.90;;;;;;4975956;28;20245;-76
2020/12/26 07:14:33;;;;;;;11.18;3.42;;;-3.90;99.90;;;;;;4975251;28;20258;-74
2020/12/26 07:17:19;;;;;;;5.25;3.22;;;-3.80;99.90;;;;;;4976430;28;21082;-76
2020/12/26 07:19:46;;;;;;;3.35;2.30;;;-3.80;99.90;;;;;;4967961;28;20382;-76
2020/12/26 07:22:30;;;;;;;3.15;2.10;;;-3.80;99.90;;;;;;4972042;28;20211;-76
2020/12/26 07:25:08;;;;;;;4.03;2.63;;;-3.70;99.90;;;;;;4972836;28;20610;-76
2020/12/26 07:27:38;;;;;;;6.80;3.05;;;-3.80;99.90;;;;;;4972463;28;20203;-76
2020/12/26 07:30:08;;;;;;;10.93;3.85;;;-3.80;99.90;;;;;;4974512;28;20214;-76
2020/12/26 07:32:41;;;;;;;9.10;3.67;;;-3.80;99.90;;;;;;4965514;28;20234;-76
2020/12/26 07:35:14;;;;;;;5.13;2.70;;;-3.80;99.90;;;;;;4975147;28;20256;-77
2020/12/26 07:37:40;;;;;;;5.15;3.33;;;-3.80;99.90;;;;;;4972828;28;20814;-76
2020/12/26 07:40:06;;;;;;;3.72;2.65;;;-3.80;99.90;;;;;;4973568;28;20206;-77
2020/12/26 07:42:33;;;;;;;3.85;2.80;;;-3.80;99.90;;;;;;4970630;28;20203;-77
2020/12/26 07:45:08;;;;;;;2.88;2.30;;;-3.80;99.90;;;;;;4973423;28;20709;-77
2020/12/26 07:47:41;;;;;;;4.40;2.40;;;-3.80;99.90;;;;;;4977860;28;20242;-77
2020/12/26 07:50:08;;;;;;;3.97;2.60;;;-3.70;99.90;;;;;;4974897;28;20567;-76
2020/12/26 07:52:34;;;;;;;5.70;2.65;;;-3.70;99.90;;;;;;4971005;28;20641;-76
2020/12/26 07:55:01;;;;;;;6.55;3.67;;;-3.60;99.90;;;;;;4973336;28;20204;-76
2020/12/26 07:57:27;;;;;;;3.78;2.33;;;-3.60;99.90;;;;;;4970365;28;20520;-76
2020/12/26 07:59:54;;;;;;;2.38;1.90;;;-3.60;99.90;;;;;;4972464;28;20206;-75
2020/12/26 08:02:20;;;;;;;3.45;2.13;;;-3.60;99.90;;;;;;4971029;28;20238;-76
2020/12/26 08:04:47;;;;;;;3.20;2.22;;;-3.60;99.90;;;;;;4973449;28;21001;-76
2020/12/26 08:07:14;;;;;;;2.70;2.30;;;-3.60;99.90;;;;;;4982583;28;20219;-77
2020/12/26 08:09:49;;;;;;;2.30;1.80;;;-3.60;99.90;;;;;;4977158;28;20247;-76
2020/12/26 08:12:16;;;;;;;4.93;2.20;;;-3.50;99.90;;;;;;4973813;28;20192;-76
2020/12/26 08:14:42;;;;;;;3.70;2.40;;;-3.50;99.90;;;;;;4973004;28;20203;-76
2020/12/26 08:17:07;;;;;;;3.92;1.98;;;-3.50;99.90;;;;;;4974709;28;20265;-77
2020/12/26 08:19:37;;;;;;;2.60;2.00;;;-3.60;99.90;;;;;;4976410;28;20708;-77
2020/12/26 08:22:03;;;;;;;3.92;2.22;;;-3.70;99.90;;;;;;4976689;28;20208;-77
2020/12/26 08:24:29;;;;;;;2.80;1.80;;;-3.70;99.90;;;;;;4974623;28;20239;-76
2020/12/26 08:26:56;;;;;;;3.38;2.22;;;-3.70;99.90;;;;;;4977052;28;20212;-77
2020/12/26 08:29:33;;;;;;;4.10;2.58;;;-3.70;99.90;;;;;;4977188;28;20295;-77
2020/12/26 08:32:11;;;;;;;5.90;3.72;;;-3.70;99.90;;;;;;4981783;28;20195;-76
2020/12/26 08:34:57;;;;;;;8.45;3.85;;;-3.70;99.90;;;;;;4985778;28;20666;-77
2020/12/26 08:37:32;;;;;;;8.93;4.90;;;-3.70;99.90;;;;;;4977692;28;20257;-77
2020/12/26 08:40:03;;;;;;;8.27;4.30;;;-3.70;99.90;;;;;;4975430;28;20291;-76
2020/12/26 08:42:29;;;;;;;7.55;4.22;;;-3.60;99.90;;;;;;4975055;28;20221;-76
2020/12/26 08:44:55;;;;;;;7.25;3.88;;;-3.60;99.90;;;;;;4973910;28;20203;-76
2020/12/26 08:47:32;;;;;;;4.88;3.20;;;-3.50;99.90;;;;;;4983415;28;20226;-76
2020/12/26 08:49:58;;;;;;;4.85;2.97;;;-3.40;99.90;;;;;;4979235;28;20682;-76
2020/12/26 08:52:27;;;;;;;7.97;3.15;;;-3.30;99.90;;;;;;4977153;28;20749;-76
2020/12/26 08:55:04;;;;;;;3.95;2.38;;;-3.20;99.90;;;;;;4980672;28;20207;-76
2020/12/26 08:57:30;;;;;;;5.35;2.78;;;-3.10;99.90;;;;;;4979704;28;20195;-76
2020/12/26 09:00:18;;;;;;;3.63;2.28;;;-3.10;99.90;;;;;;4978377;28;20365;-76
2020/12/26 09:02:49;;;;;;;5.43;2.40;;;-3.00;99.90;;;;;;4984252;28;20196;-76
2020/12/26 09:05:28;;;;;;;5.60;2.70;;;-3.00;99.90;;;;;;4978182;28;20227;-76
2020/12/26 09:08:01;;;;;;;11.30;4.07;;;-2.90;99.90;;;;;;4973607;28;20218;-76
2020/12/26 09:10:27;;;;;;;7.35;3.75;;;-2.90;99.90;;;;;;4978685;28;20212;-76
2020/12/26 09:13:11;;;;;;;12.45;5.07;;;-2.90;99.90;;;;;;4982261;28;20721;-76
2020/12/26 09:15:53;;;;;;;40.70;13.20;;;-3.00;99.90;;;;;;4996876;28;20210;-76
2020/12/26 09:18:27;;;;;;;23.73;8.55;;;-3.00;99.90;;;;;;4982089;28;20199;-76
2020/12/26 09:21:01;;;;;;;11.27;5.07;;;-2.90;99.90;;;;;;4985915;28;20250;-76
2020/12/26 09:23:46;;;;;;;6.60;3.15;;;-2.90;99.90;;;;;;4977932;28;20242;-76
2020/12/26 09:26:21;;;;;;;7.80;3.88;;;-3.00;99.90;;;;;;4993400;28;20249;-75
2020/12/26 09:28:58;;;;;;;5.55;3.15;;;-2.90;99.90;;;;;;4983348;28;20581;-76
2020/12/26 09:31:24;;;;;;;5.43;3.08;;;-2.90;99.90;;;;;;4985265;28;20195;-76
2020/12/26 09:33:55;;;;;;;6.50;3.30;;;-2.80;99.90;;;;;;4981390;28;20191;-77
2020/12/26 09:36:23;;;;;;;9.25;5.00;;;-2.80;99.90;;;;;;4981024;28;20286;-76
2020/12/26 09:38:50;;;;;;;10.52;5.05;;;-2.70;99.90;;;;;;4984228;28;20203;-77
2020/12/26 09:41:16;;;;;;;9.90;4.63;;;-2.70;99.90;;;;;;4979529;28;20200;-76
2020/12/26 09:43:44;;;;;;;8.50;4.20;;;-2.70;99.90;;;;;;4981855;28;20264;-76
2020/12/26 09:46:10;;;;;;;7.63;3.85;;;-2.70;99.90;;;;;;4984605;28;20580;-76
2020/12/26 09:48:36;;;;;;;12.18;3.08;;;-2.70;99.90;;;;;;4983397;28;20249;-77
2020/12/26 09:51:04;;;;;;;6.75;3.85;;;-2.70;99.90;;;;;;4978790;28;20658;-76
2020/12/26 09:53:30;;;;;;;5.72;3.03;;;-2.60;99.90;;;;;;4975029;28;20230;-76
2020/12/26 09:55:55;;;;;;;7.68;3.67;;;-2.60;99.90;;;;;;4976741;28;20243;-76
2020/12/26 09:58:21;;;;;;;44.83;15.93;;;-2.50;99.90;;;;;;4984272;28;20215;-77
2020/12/26 10:00:47;;;;;;;29.50;11.02;;;-2.40;99.90;;;;;;4982942;28;20195;-76
2020/12/26 10:03:12;;;;;;;24.70;10.27;;;-2.40;99.90;;;;;;4984881;28;20282;-76
2020/12/26 10:05:38;;;;;;;17.33;7.00;;;-2.30;99.90;;;;;;4983497;28;20720;-75
2020/12/26 10:08:04;;;;;;;12.80;4.88;;;-2.20;99.90;;;;;;4980885;28;20201;-76
2020/12/26 10:10:29;;;;;;;5.03;3.35;;;-2.10;99.90;;;;;;4979225;28;20650;-75
2020/12/26 10:12:55;;;;;;;7.15;3.40;;;-2.10;99.90;;;;;;4982761;28;20527;-75
2020/12/26 10:15:21;;;;;;;5.05;3.40;;;-2.10;99.90;;;;;;4982173;28;20242;-76
2020/12/26 10:17:46;;;;;;;6.20;3.40;;;-2.10;99.90;;;;;;4982627;28;20195;-76
2020/12/26 10:20:12;;;;;;;6.85;3.72;;;-2.00;99.90;;;;;;4981285;28;20210;-76
2020/12/26 10:22:38;;;;;;;4.70;2.97;;;-2.00;99.90;;;;;;4982153;28;20214;-76
2020/12/26 10:25:04;;;;;;;7.72;4.50;;;-2.00;99.90;;;;;;4983510;28;20199;-76
2020/12/26 10:27:29;;;;;;;14.70;6.03;;;-2.00;99.90;;;;;;4983789;28;20227;-75
2020/12/26 10:29:55;;;;;;;8.95;4.60;;;-1.90;99.90;;;;;;4983288;28;20708;-75
2020/12/26 10:32:21;;;;;;;35.78;12.05;;;-1.90;99.90;;;;;;4982497;28;20214;-76
2020/12/26 10:34:46;;;;;;;18.63;6.50;;;-1.90;99.90;;;;;;4980895;28;20203;-76
2020/12/26 10:37:15;;;;;;;20.02;7.07;;;-1.90;99.90;;;;;;4980242;28;20232;-76
2020/12/26 10:39:42;;;;;;;21.45;8.63;;;-1.90;99.90;;;;;;4979827;28;20722;-76
2020/12/26 10:42:08;;;;;;;36.03;14.13;;;-1.90;99.90;;;;;;4980780;28;20230;-76
2020/12/26 10:44:34;;;;;;;22.52;10.07;;;-1.80;99.90;;;;;;4977829;28;20249;-76
2020/12/26 10:47:00;;;;;;;28.30;9.23;;;-1.80;99.90;;;;;;4979947;28;20210;-76
2020/12/26 10:49:26;;;;;;;19.55;8.73;;;-1.80;99.90;;;;;;4982781;28;20246;-76
2020/12/26 10:51:51;;;;;;;21.40;9.55;;;-1.80;99.90;;;;;;4971525;28;20204;-76
2020/12/26 10:54:17;;;;;;;19.15;8.05;;;-1.70;99.90;;;;;;4979342;28;20231;-76
2020/12/26 10:56:49;;;;;;;10.15;4.97;;;-1.70;99.90;;;;;;4995566;28;20598;-76
2020/12/26 10:59:15;;;;;;;5.95;3.45;;;-1.70;99.90;;;;;;4978818;28;20269;-76
2020/12/26 11:01:41;;;;;;;5.35;3.10;;;-1.60;99.90;;;;;;4983587;28;20227;-76
2020/12/26 11:04:07;;;;;;;5.10;2.90;;;-1.60;99.90;;;;;;4974653;28;20274;-76
2020/12/26 11:06:33;;;;;;;8.35;4.72;;;-1.60;99.90;;;;;;4978560;28;20207;-76
2020/12/26 11:08:59;;;;;;;10.25;4.97;;;-1.60;99.90;;;;;;4983565;28;20298;-76
2020/12/26 11:11:25;;;;;;;9.98;5.28;;;-1.60;99.90;;;;;;4984490;28;20290;-76
2020/12/26 11:13:50;;;;;;;9.18;5.30;;;-1.50;99.90;;;;;;4986896;28;20199;-76
2020/12/26 11:16:17;;;;;;;14.20;6.75;;;-1.50;99.90;;;;;;4984159;28;20202;-76
2020/12/26 11:18:44;;;;;;;9.75;5.40;;;-1.50;99.90;;;;;;4983296;28;20207;-75
2020/12/26 11:21:17;;;;;;;13.15;6.20;;;-1.50;99.90;;;;;;4985334;28;21553;-76
2020/12/26 11:23:43;;;;;;;13.20;6.35;;;-1.50;99.90;;;;;;4980326;28;20251;-75
2020/12/26 11:26:11;;;;;;;12.10;6.10;;;-1.40;99.90;;;;;;4984533;28;20261;-76
2020/12/26 11:28:37;;;;;;;11.00;5.70;;;-1.40;99.90;;;;;;4983367;28;20775;-76
2020/12/26 11:31:03;;;;;;;12.95;6.15;;;-1.40;99.90;;;;;;4982757;28;20196;-76
2020/12/26 11:33:29;;;;;;;21.02;8.27;;;-1.30;99.90;;;;;;4979436;28;20210;-76
2020/12/26 11:35:55;;;;;;;32.05;11.80;;;-1.30;99.90;;;;;;4987292;28;20669;-76
2020/12/26 11:38:20;;;;;;;36.88;13.32;;;-1.30;99.90;;;;;;4984656;28;20219;-77
2020/12/26 11:40:46;;;;;;;21.20;9.35;;;-1.40;99.90;;;;;;4980230;28;20645;-77
2020/12/26 11:43:12;;;;;;;26.55;10.68;;;-1.40;99.90;;;;;;4984807;28;20203;-76
2020/12/26 11:45:37;;;;;;;21.25;8.60;;;-1.30;99.90;;;;;;4986133;28;20196;-77
2020/12/26 11:48:04;;;;;;;18.90;7.38;;;-1.30;99.90;;;;;;4983567;28;20198;-77
2020/12/26 11:50:30;;;;;;;8.38;3.90;;;-1.20;99.90;;;;;;4977276;28;20878;-77
2020/12/26 11:52:55;;;;;;;7.13;3.40;;;-1.20;99.90;;;;;;4983613;28;20196;-77
2020/12/26 11:55:21;;;;;;;5.43;2.63;;;-1.20;99.90;;;;;;4986354;28;20652;-77
2020/12/26 11:57:47;;;;;;;6.93;3.10;;;-1.20;99.90;;;;;;4983160;28;20196;-77
2020/12/26 12:00:13;;;;;;;5.47;2.90;;;-1.20;99.90;;;;;;4983534;28;20548;-77
2020/12/26 12:02:39;;;;;;;6.60;3.20;;;-1.10;99.90;;;;;;4985665;28;20288;-75
2020/12/26 12:05:04;;;;;;;5.80;3.05;;;-1.10;99.90;;;;;;4979421;28;20286;-75
2020/12/26 12:07:30;;;;;;;5.03;2.80;;;-1.10;99.90;;;;;;4981327;28;20730;-78
2020/12/26 12:09:56;;;;;;;4.85;2.55;;;-1.00;99.90;;;;;;4984329;28;20215;-75
2020/12/26 12:12:22;;;;;;;5.78;2.78;;;-1.00;99.90;;;;;;4985081;28;20236;-76
2020/12/26 12:14:48;;;;;;;9.68;5.18;;;-0.90;99.90;;;;;;4984767;28;20226;-75
2020/12/26 12:17:13;;;;;;;18.52;7.05;;;-0.90;99.90;;;;;;4983539;28;20953;-74
2020/12/26 12:19:39;;;;;;;22.67;6.88;;;-0.90;99.90;;;;;;4979850;28;20199;-77
2020/12/26 12:22:05;;;;;;;22.77;7.95;;;-0.80;99.90;;;;;;4981890;28;20214;-74
2020/12/26 12:24:31;;;;;;;33.13;12.45;;;-0.80;99.90;;;;;;4984892;28;20340;-76
2020/12/26 12:26:56;;;;;;;27.70;12.48;;;-0.80;99.90;;;;;;4983030;28;20274;-76
2020/12/26 12:29:22;;;;;;;33.58;13.65;;;-0.70;99.90;;;;;;4983701;28;20215;-76
2020/12/26 12:31:48;;;;;;;24.42;11.23;;;-0.70;99.90;;;;;;4979250;28;20200;-76
2020/12/26 12:34:14;;;;;;;25.15;11.10;;;-0.60;99.90;;;;;;4984664;28;20250;-76
2020/12/26 12:36:39;;;;;;;19.05;9.73;;;-0.60;99.90;;;;;;4983608;28;20196;-76
2020/12/26 12:39:05;;;;;;;18.83;8.90;;;-0.60;99.90;;;;;;4996220;28;20200;-76
2020/12/26 12:41:31;;;;;;;17.52;8.43;;;-0.50;99.90;;;;;;4984425;28;20279;-76
2020/12/26 12:43:56;;;;;;;18.23;6.82;;;-0.50;99.90;;;;;;4983457;28;20248;-76
2020/12/26 12:46:22;;;;;;;18.38;6.80;;;-0.50;99.90;;;;;;4980781;28;20266;-77
2020/12/26 12:48:48;;;;;;;14.57;5.70;;;-0.50;99.90;;;;;;4983241;28;20299;-75